createdAt,value
2022-10-19T00:00:33.711Z,1020.8
2022-10-19T00:01:33.720Z,1020.8
2022-10-19T00:02:33.853Z,1020.8
2022-10-19T00:03:33.726Z,1020.7
2022-10-19T00:04:33.734Z,1020.7
2022-10-19T00:05:33.744Z,1020.7
2022-10-19T00:06:33.769Z,1020.7
2022-10-19T00:07:34.363Z,1020.7
2022-10-19T00:08:33.757Z,1020.8
2022-10-19T00:09:33.767Z,1020.8
2022-10-19T00:10:33.776Z,1020.7
2022-10-19T00:11:33.810Z,1020.8
2022-10-19T00:12:33.791Z,1020.8
2022-10-19T00:13:33.803Z,1020.7
2022-10-19T00:14:33.805Z,1020.8
2022-10-19T00:15:33.816Z,1020.7
2022-10-19T00:16:33.828Z,1020.7
2022-10-19T00:17:34.360Z,1020.7
2022-10-19T00:18:33.841Z,1020.8
2022-10-19T00:19:33.851Z,1020.7
2022-10-19T00:20:33.859Z,1020.8
2022-10-19T00:21:33.865Z,1020.9
2022-10-19T00:22:34.531Z,1020.8
2022-10-19T00:23:33.890Z,1020.7
2022-10-19T00:24:33.892Z,1020.7
2022-10-19T00:25:33.900Z,1020.8
2022-10-19T00:26:33.905Z,1020.8
2022-10-19T00:27:33.918Z,1020.8
2022-10-19T00:28:34.091Z,1020.7
2022-10-19T00:29:33.934Z,1020.8
2022-10-19T00:30:33.933Z,1020.8
2022-10-19T00:31:33.944Z,1020.8
2022-10-19T00:32:34.514Z,1020.9
2022-10-19T00:33:33.962Z,1020.8
2022-10-19T00:34:33.970Z,1020.9
2022-10-19T00:35:33.975Z,1020.8
2022-10-19T00:36:33.985Z,1020.8
2022-10-19T00:37:33.991Z,1021.0
2022-10-19T00:38:34.006Z,1020.9
2022-10-19T00:39:34.013Z,1021.0
2022-10-19T00:40:34.018Z,1021.0
2022-10-19T00:58:34.521Z,1021.0
2022-10-19T00:59:34.182Z,1021.0
2022-10-19T01:00:34.196Z,1021.1
2022-10-19T01:01:34.363Z,1021.1
2022-10-19T01:02:35.217Z,1021.0
2022-10-19T01:03:34.216Z,1021.1
2022-10-19T01:04:34.222Z,1021.1
2022-10-19T01:05:34.234Z,1021.0
2022-10-19T01:06:34.233Z,1021.2
2022-10-19T01:07:34.933Z,1021.2
2022-10-19T01:08:34.253Z,1021.1
2022-10-19T01:09:34.268Z,1021.1
2022-10-19T01:10:34.271Z,1021.1
2022-10-19T01:11:34.281Z,1021.1
2022-10-19T01:12:34.291Z,1021.1
2022-10-19T01:13:34.296Z,1021.1
2022-10-19T01:14:34.315Z,1021.0
2022-10-19T01:15:34.310Z,1021.0
2022-10-19T01:16:34.326Z,1021.1
2022-10-19T01:17:35.069Z,1020.9
2022-10-19T01:18:34.334Z,1021.1
2022-10-19T01:19:34.344Z,1021.0
2022-10-19T01:20:34.348Z,1021.0
2022-10-19T01:21:34.353Z,1021.0
2022-10-19T01:22:34.362Z,1021.0
2022-10-19T01:23:34.370Z,1020.9
2022-10-19T01:24:40.521Z,1021.0
2022-10-19T01:25:34.388Z,1021.0
2022-10-19T01:26:34.390Z,1020.9
2022-10-19T01:44:34.735Z,1021.0
2022-10-19T01:45:34.550Z,1021.1
2022-10-19T01:46:34.565Z,1021.0
2022-10-19T01:47:35.240Z,1021.0
2022-10-19T01:48:34.601Z,1021.0
2022-10-19T01:49:34.582Z,1021.0
2022-10-19T01:50:34.591Z,1021.0
2022-10-19T01:51:34.603Z,1021.0
2022-10-19T01:52:35.191Z,1021.0
2022-10-19T01:53:34.627Z,1021.0
2022-10-19T01:54:34.634Z,1021.0
2022-10-19T01:55:34.641Z,1021.0
2022-10-19T01:56:34.651Z,1021.0
2022-10-19T01:57:34.663Z,1021.0
2022-10-19T01:58:34.672Z,1021.0
2022-10-19T01:59:34.683Z,1021.1
2022-10-19T02:00:34.695Z,1021.0
2022-10-19T02:01:34.705Z,1021.0
2022-10-19T02:02:35.341Z,1021.1
2022-10-19T02:03:34.715Z,1021.1
2022-10-19T02:04:34.725Z,1021.0
2022-10-19T02:05:34.737Z,1021.1
2022-10-19T02:06:34.746Z,1021.1
2022-10-19T02:07:34.761Z,1021.0
2022-10-19T02:08:34.765Z,1021.0
2022-10-19T02:09:34.775Z,1021.0
2022-10-19T02:10:34.780Z,1021.0
2022-10-19T02:11:34.791Z,1021.0
2022-10-19T02:12:35.455Z,1021.0
2022-10-19T02:13:34.809Z,1021.0
2022-10-19T02:14:34.819Z,1021.0
2022-10-19T02:15:34.924Z,1021.1
2022-10-19T02:16:34.831Z,1021.1
2022-10-19T02:17:34.843Z,1021.0
2022-10-19T02:18:34.853Z,1021.1
2022-10-19T02:19:34.860Z,1021.0
2022-10-19T02:20:34.875Z,1021.0
2022-10-19T02:21:34.872Z,1021.0
2022-10-19T02:22:35.522Z,1021.0
2022-10-19T02:23:34.892Z,1020.9
2022-10-19T02:24:34.905Z,1021.0
2022-10-19T02:25:34.913Z,1021.0
2022-10-19T02:26:34.921Z,1021.0
2022-10-19T02:27:34.933Z,1021.0
2022-10-19T02:28:34.937Z,1021.0
2022-10-19T02:29:34.948Z,1021.0
2022-10-19T02:30:34.961Z,1021.0
2022-10-19T02:31:34.969Z,1021.0
2022-10-19T02:32:35.656Z,1020.9
2022-10-19T02:33:34.990Z,1021.0
2022-10-19T02:34:35.000Z,1021.0
2022-10-19T02:35:35.022Z,1021.0
2022-10-19T02:36:35.012Z,1021.0
2022-10-19T02:38:35.042Z,1021.0
2022-10-19T02:39:35.058Z,1021.0
2022-10-19T02:40:35.045Z,1020.9
2022-10-19T02:41:35.053Z,1020.9
2022-10-19T02:42:35.886Z,1020.9
2022-10-19T02:43:35.065Z,1021.0
2022-10-19T02:44:35.077Z,1021.0
2022-10-19T02:45:35.088Z,1021.0
2022-10-19T02:46:35.199Z,1020.9
2022-10-19T02:47:35.831Z,1020.9
2022-10-19T02:48:35.111Z,1021.0
2022-10-19T02:49:35.122Z,1020.9
2022-10-19T02:50:35.130Z,1020.9
2022-10-19T02:51:35.136Z,1020.9
2022-10-19T02:52:35.148Z,1021.1
2022-10-19T02:53:35.180Z,1021.0
2022-10-19T02:54:35.163Z,1021.0
2022-10-19T02:55:35.265Z,1021.0
2022-10-19T02:56:35.182Z,1021.1
2022-10-19T02:57:35.753Z,1021.0
2022-10-19T02:58:35.205Z,1021.1
2022-10-19T02:59:35.215Z,1021.0
2022-10-19T03:00:35.359Z,1021.0
2022-10-19T03:01:35.231Z,1021.0
2022-10-19T03:02:35.239Z,1021.0
2022-10-19T03:03:35.243Z,1021.0
2022-10-19T03:04:35.317Z,1020.9
2022-10-19T03:05:35.262Z,1021.0
2022-10-19T03:06:35.268Z,1021.0
2022-10-19T03:07:36.114Z,1021.0
2022-10-19T03:08:35.285Z,1021.0
2022-10-19T03:09:35.295Z,1021.0
2022-10-19T03:10:35.324Z,1021.1
2022-10-19T03:11:35.318Z,1021.1
2022-10-19T03:12:35.327Z,1021.2
2022-10-19T03:13:35.426Z,1021.2
2022-10-19T03:14:35.348Z,1021.2
2022-10-19T03:15:35.362Z,1021.2
2022-10-19T03:16:35.370Z,1021.2
2022-10-19T03:17:36.115Z,1021.1
2022-10-19T03:18:35.393Z,1021.2
2022-10-19T03:19:35.399Z,1021.2
2022-10-19T03:20:35.411Z,1021.2
2022-10-19T03:21:35.423Z,1021.2
2022-10-19T03:22:35.435Z,1021.2
2022-10-19T03:23:35.443Z,1021.3
2022-10-19T03:24:35.454Z,1021.3
2022-10-19T03:25:35.463Z,1021.3
2022-10-19T03:26:35.477Z,1021.2
2022-10-19T03:27:36.223Z,1021.4
2022-10-19T03:28:35.568Z,1021.2
2022-10-19T03:29:35.504Z,1021.3
2022-10-19T03:30:35.515Z,1021.3
2022-10-19T03:31:35.535Z,1021.2
2022-10-19T03:32:35.529Z,1021.3
2022-10-19T03:33:35.536Z,1021.4
2022-10-19T03:34:35.540Z,1021.2
2022-10-19T03:35:35.554Z,1021.3
2022-10-19T03:36:35.564Z,1021.4
2022-10-19T03:37:36.457Z,1021.4
2022-10-19T03:38:35.578Z,1021.4
2022-10-19T03:39:35.594Z,1021.4
2022-10-19T03:40:35.597Z,1021.4
2022-10-19T03:41:35.608Z,1021.4
2022-10-19T03:42:35.610Z,1021.4
2022-10-19T03:43:35.626Z,1021.4
2022-10-19T03:44:35.636Z,1021.4
2022-10-19T03:45:35.674Z,1021.3
2022-10-19T03:46:35.663Z,1021.4
2022-10-19T03:47:36.402Z,1021.4
2022-10-19T03:48:35.678Z,1021.5
2022-10-19T03:49:40.292Z,1021.5
2022-10-19T03:50:35.693Z,1021.5
2022-10-19T03:51:35.698Z,1021.5
2022-10-19T03:52:35.709Z,1021.4
2022-10-19T03:53:35.718Z,1021.5
2022-10-19T03:54:35.726Z,1021.4
2022-10-19T03:55:35.737Z,1021.5
2022-10-19T03:56:35.754Z,1021.5
2022-10-19T03:57:36.521Z,1021.5
2022-10-19T03:58:35.766Z,1021.5
2022-10-19T03:59:35.774Z,1021.6
2022-10-19T04:00:35.785Z,1021.5
2022-10-19T04:01:35.800Z,1021.5
2022-10-19T04:02:35.807Z,1021.5
2022-10-19T04:04:35.831Z,1021.5
2022-10-19T04:05:35.840Z,1021.6
2022-10-19T04:06:35.854Z,1021.5
2022-10-19T04:07:36.355Z,1021.6
2022-10-19T04:08:35.868Z,1021.6
2022-10-19T04:09:35.881Z,1021.5
2022-10-19T04:10:35.898Z,1021.6
2022-10-19T04:11:35.895Z,1021.6
2022-10-19T04:12:35.908Z,1021.6
2022-10-19T04:13:35.916Z,1021.7
2022-10-19T04:14:56.680Z,1021.7
2022-10-19T04:15:35.945Z,1021.7
2022-10-19T04:16:35.967Z,1021.6
2022-10-19T04:17:36.719Z,1021.6
2022-10-19T04:18:35.974Z,1021.6
2022-10-19T04:19:36.013Z,1021.6
2022-10-19T04:20:36.007Z,1021.6
2022-10-19T04:21:36.007Z,1021.7
2022-10-19T04:22:36.015Z,1021.6
2022-10-19T04:23:36.037Z,1021.6
2022-10-19T04:24:36.036Z,1021.6
2022-10-19T04:25:36.049Z,1021.6
2022-10-19T04:26:36.057Z,1021.6
2022-10-19T04:27:36.829Z,1021.7
2022-10-19T04:28:36.131Z,1021.7
2022-10-19T04:29:36.083Z,1021.6
2022-10-19T04:30:36.089Z,1021.7
2022-10-19T04:31:36.106Z,1021.7
2022-10-19T04:32:36.110Z,1021.7
2022-10-19T04:33:36.252Z,1021.7
2022-10-19T04:34:40.203Z,1021.7
2022-10-19T04:35:36.142Z,1021.7
2022-10-19T04:36:36.160Z,1021.7
2022-10-19T04:37:36.772Z,1021.7
2022-10-19T04:38:36.174Z,1021.7
2022-10-19T04:39:36.174Z,1021.7
2022-10-19T04:40:36.185Z,1021.7
2022-10-19T04:41:36.191Z,1021.7
2022-10-19T04:42:36.205Z,1021.7
2022-10-19T04:43:36.224Z,1021.7
2022-10-19T04:44:36.222Z,1021.8
2022-10-19T04:45:36.232Z,1021.8
2022-10-19T04:46:36.232Z,1021.8
2022-10-19T04:47:36.899Z,1021.9
2022-10-19T04:48:36.254Z,1021.9
2022-10-19T04:49:36.267Z,1021.9
2022-10-19T04:50:36.272Z,1021.9
2022-10-19T04:51:36.297Z,1021.9
2022-10-19T04:52:36.291Z,1021.9
2022-10-19T04:53:36.299Z,1021.8
2022-10-19T04:54:36.304Z,1021.8
2022-10-19T04:55:36.323Z,1021.9
2022-10-19T04:56:36.323Z,1021.9
2022-10-19T04:57:36.988Z,1021.9
2022-10-19T04:58:36.339Z,1021.9
2022-10-19T04:59:36.344Z,1021.9
2022-10-19T05:00:36.491Z,1021.9
2022-10-19T05:01:36.360Z,1021.9
2022-10-19T05:02:36.374Z,1021.9
2022-10-19T05:03:36.385Z,1022.0
2022-10-19T05:04:36.399Z,1021.9
2022-10-19T05:05:36.406Z,1021.9
2022-10-19T05:06:36.410Z,1021.9
2022-10-19T05:07:36.992Z,1021.9
2022-10-19T05:08:36.437Z,1021.9
2022-10-19T05:09:36.434Z,1021.9
2022-10-19T05:10:36.454Z,1021.9
2022-10-19T05:11:36.455Z,1022.0
2022-10-19T05:12:36.471Z,1022.0
2022-10-19T05:13:36.489Z,1021.9
2022-10-19T05:14:42.024Z,1022.0
2022-10-19T05:15:36.504Z,1022.0
2022-10-19T05:16:36.516Z,1022.0
2022-10-19T05:17:37.227Z,1022.0
2022-10-19T05:18:36.539Z,1021.9
2022-10-19T05:19:36.550Z,1021.9
2022-10-19T05:20:36.576Z,1022.0
2022-10-19T05:21:36.575Z,1022.0
2022-10-19T05:22:36.586Z,1022.0
2022-10-19T05:23:36.602Z,1022.0
2022-10-19T05:24:36.616Z,1022.0
2022-10-19T05:25:36.615Z,1022.1
2022-10-19T05:26:36.626Z,1022.0
2022-10-19T05:27:37.306Z,1022.0
2022-10-19T05:28:36.759Z,1022.0
2022-10-19T05:29:36.661Z,1022.0
2022-10-19T05:30:36.662Z,1022.0
2022-10-19T05:31:36.677Z,1022.0
2022-10-19T05:32:36.685Z,1022.0
2022-10-19T05:33:36.694Z,1022.0
2022-10-19T05:34:36.705Z,1021.9
2022-10-19T05:35:36.716Z,1022.0
2022-10-19T05:36:36.735Z,1022.0
2022-10-19T05:37:37.305Z,1021.9
2022-10-19T05:38:36.742Z,1022.0
2022-10-19T05:39:36.750Z,1022.0
2022-10-19T05:40:36.758Z,1021.9
2022-10-19T05:41:36.766Z,1022.0
2022-10-19T05:42:36.779Z,1022.0
2022-10-19T05:43:36.782Z,1021.8
2022-10-19T05:45:36.808Z,1021.8
2022-10-19T05:46:36.819Z,1021.9
2022-10-19T05:47:37.489Z,1021.9
2022-10-19T05:48:36.847Z,1021.9
2022-10-19T05:49:36.857Z,1021.8
2022-10-19T05:50:36.869Z,1021.9
2022-10-19T05:51:36.878Z,1021.9
2022-10-19T05:52:36.900Z,1022.0
2022-10-19T05:54:36.908Z,1021.9
2022-10-19T05:55:36.919Z,1021.9
2022-10-19T05:56:36.931Z,1021.9
2022-10-19T05:57:37.610Z,1021.9
2022-10-19T05:58:36.961Z,1021.8
2022-10-19T05:59:36.968Z,1021.8
2022-10-19T06:00:36.977Z,1021.9
2022-10-19T06:01:37.066Z,1021.9
2022-10-19T06:02:36.999Z,1021.8
2022-10-19T06:03:37.006Z,1021.9
2022-10-19T06:04:37.024Z,1021.9
2022-10-19T06:05:37.029Z,1021.9
2022-10-19T06:06:37.038Z,1021.9
2022-10-19T06:07:37.435Z,1021.9
2022-10-19T06:08:37.057Z,1021.9
2022-10-19T06:09:37.076Z,1021.9
2022-10-19T06:10:37.081Z,1022.0
2022-10-19T06:11:37.087Z,1021.9
2022-10-19T06:12:37.100Z,1021.8
2022-10-19T06:13:37.097Z,1021.9
2022-10-19T06:14:37.246Z,1021.9
2022-10-19T06:15:37.121Z,1021.9
2022-10-19T06:16:37.132Z,1021.9
2022-10-19T06:17:37.308Z,1021.9
2022-10-19T06:18:37.162Z,1022.0
2022-10-19T06:19:37.168Z,1021.9
2022-10-19T06:20:37.179Z,1022.0
2022-10-19T06:21:42.031Z,1021.9
2022-10-19T06:22:37.193Z,1022.0
2022-10-19T06:23:37.343Z,1021.9
2022-10-19T06:24:37.212Z,1022.1
2022-10-19T06:25:37.219Z,1022.0
2022-10-19T06:26:37.226Z,1021.9
2022-10-19T06:27:38.058Z,1022.0
2022-10-19T06:28:37.256Z,1022.0
2022-10-19T06:29:37.266Z,1022.0
2022-10-19T06:30:37.439Z,1022.0
2022-10-19T06:31:37.292Z,1022.0
2022-10-19T06:32:37.293Z,1022.0
2022-10-19T06:33:37.554Z,1021.9
2022-10-19T06:34:37.326Z,1021.9
2022-10-19T06:35:37.332Z,1021.9
2022-10-19T06:36:37.343Z,1022.0
2022-10-19T06:37:37.354Z,1021.9
2022-10-19T06:38:37.360Z,1022.0
2022-10-19T06:39:37.378Z,1021.9
2022-10-19T06:40:37.383Z,1022.0
2022-10-19T06:41:37.398Z,1022.0
2022-10-19T06:42:37.410Z,1022.0
2022-10-19T06:43:37.416Z,1021.9
2022-10-19T06:44:37.427Z,1021.9
2022-10-19T06:45:37.440Z,1022.0
2022-10-19T06:46:37.459Z,1021.9
2022-10-19T06:47:38.701Z,1022.0
2022-10-19T06:48:37.478Z,1022.0
2022-10-19T06:49:37.502Z,1021.9
2022-10-19T06:50:37.504Z,1021.8
2022-10-19T06:51:37.515Z,1021.9
2022-10-19T06:52:37.517Z,1021.9
2022-10-19T06:53:37.534Z,1021.9
2022-10-19T06:54:37.540Z,1021.8
2022-10-19T06:55:37.548Z,1021.9
2022-10-19T06:56:37.675Z,1021.9
2022-10-19T06:57:37.970Z,1021.9
2022-10-19T06:58:37.587Z,1021.9
2022-10-19T06:59:37.601Z,1021.9
2022-10-19T07:00:37.754Z,1021.9
2022-10-19T07:01:37.629Z,1021.9
2022-10-19T07:02:37.635Z,1022.0
2022-10-19T07:03:37.646Z,1022.0
2022-10-19T07:04:37.646Z,1021.9
2022-10-19T07:05:37.669Z,1022.0
2022-10-19T07:06:37.673Z,1022.0
2022-10-19T07:07:38.372Z,1022.0
2022-10-19T07:08:37.697Z,1022.0
2022-10-19T07:09:37.733Z,1022.0
2022-10-19T07:10:37.716Z,1022.1
2022-10-19T07:11:42.463Z,1022.0
2022-10-19T07:12:37.731Z,1022.1
2022-10-19T07:13:37.751Z,1022.0
2022-10-19T07:14:37.863Z,1022.1
2022-10-19T07:15:37.766Z,1022.1
2022-10-19T07:16:37.763Z,1022.1
2022-10-19T07:17:37.772Z,1022.1
2022-10-19T07:18:37.782Z,1022.1
2022-10-19T07:19:37.787Z,1022.1
2022-10-19T07:20:37.805Z,1022.2
2022-10-19T07:21:37.806Z,1022.1
2022-10-19T07:22:37.816Z,1022.2
2022-10-19T07:23:37.829Z,1022.2
2022-10-19T07:24:37.829Z,1022.2
2022-10-19T07:25:37.832Z,1022.3
2022-10-19T07:26:37.842Z,1022.3
2022-10-19T07:27:38.029Z,1022.2
2022-10-19T07:28:37.856Z,1022.2
2022-10-19T07:29:37.871Z,1022.3
2022-10-19T07:30:37.872Z,1022.3
2022-10-19T07:31:37.887Z,1022.2
2022-10-19T07:32:37.884Z,1022.3
2022-10-19T07:33:37.887Z,1022.3
2022-10-19T07:34:37.900Z,1022.2
2022-10-19T07:35:37.906Z,1022.2
2022-10-19T07:36:37.915Z,1022.3
2022-10-19T07:37:37.934Z,1022.3
2022-10-19T07:38:37.927Z,1022.3
2022-10-19T07:39:37.938Z,1022.3
2022-10-19T07:40:37.942Z,1022.4
2022-10-19T07:41:37.956Z,1022.4
2022-10-19T07:42:37.969Z,1022.3
2022-10-19T07:43:37.978Z,1022.4
2022-10-19T07:44:37.982Z,1022.4
2022-10-19T07:45:37.991Z,1022.5
2022-10-19T07:46:37.998Z,1022.5
2022-10-19T07:47:38.005Z,1022.4
2022-10-19T07:48:38.024Z,1022.5
2022-10-19T07:49:38.029Z,1022.5
2022-10-19T07:50:38.040Z,1022.5
2022-10-19T07:51:38.057Z,1022.5
2022-10-19T07:52:38.738Z,1022.5
2022-10-19T07:53:38.083Z,1022.5
2022-10-19T07:54:38.084Z,1022.6
2022-10-19T07:55:38.097Z,1022.5
2022-10-19T07:56:38.113Z,1022.6
2022-10-19T07:57:38.122Z,1022.6
2022-10-19T07:58:38.127Z,1022.6
2022-10-19T07:59:38.153Z,1022.6
2022-10-19T08:01:38.316Z,1022.6
2022-10-19T08:02:55.995Z,1022.6
2022-10-19T08:05:00.043Z,1022.6
2022-10-19T08:05:38.204Z,1022.6
2022-10-19T08:06:38.215Z,1022.6
2022-10-19T08:07:38.222Z,1022.6
2022-10-19T08:08:38.343Z,1022.5
2022-10-19T08:09:53.022Z,1022.6
2022-10-19T08:10:38.254Z,1022.6
2022-10-19T08:11:38.259Z,1022.7
2022-10-19T08:12:38.269Z,1022.6
2022-10-19T08:13:38.287Z,1022.7
2022-10-19T08:14:38.294Z,1022.7
2022-10-19T08:15:38.304Z,1022.7
2022-10-19T08:16:38.315Z,1022.7
2022-10-19T08:17:38.334Z,1022.7
2022-10-19T08:18:38.342Z,1022.7
2022-10-19T08:19:38.329Z,1022.7
2022-10-19T08:20:38.341Z,1022.7
2022-10-19T08:21:38.360Z,1022.6
2022-10-19T08:22:38.368Z,1022.7
2022-10-19T08:23:38.377Z,1022.7
2022-10-19T08:24:38.378Z,1022.7
2022-10-19T08:25:38.383Z,1022.7
2022-10-19T08:26:38.392Z,1022.7
2022-10-19T08:27:38.420Z,1022.7
2022-10-19T08:28:38.403Z,1022.7
2022-10-19T08:29:38.417Z,1022.7
2022-10-19T08:30:38.435Z,1022.8
2022-10-19T08:31:38.430Z,1022.7
2022-10-19T08:32:38.447Z,1022.8
2022-10-19T08:33:38.454Z,1022.8
2022-10-19T08:34:38.458Z,1022.8
2022-10-19T08:35:38.469Z,1022.7
2022-10-19T08:36:38.638Z,1022.8
2022-10-19T08:37:45.938Z,1022.8
2022-10-19T08:38:38.505Z,1022.9
2022-10-19T08:39:38.519Z,1022.8
2022-10-19T08:40:38.532Z,1022.9
2022-10-19T08:41:38.711Z,1022.8
2022-10-19T08:42:38.552Z,1022.8
2022-10-19T08:43:38.568Z,1022.8
2022-10-19T08:44:38.588Z,1022.9
2022-10-19T08:45:38.780Z,1022.9
2022-10-19T08:46:38.591Z,1022.9
2022-10-19T08:47:38.844Z,1022.9
2022-10-19T08:48:38.612Z,1023.0
2022-10-19T08:49:38.621Z,1022.8
2022-10-19T08:50:38.626Z,1023.0
2022-10-19T08:51:38.631Z,1023.0
2022-10-19T08:52:38.646Z,1022.9
2022-10-19T08:53:38.651Z,1022.9
2022-10-19T08:54:38.729Z,1023.0
2022-10-19T08:55:38.669Z,1023.0
2022-10-19T08:56:51.239Z,1022.9
2022-10-19T08:57:38.688Z,1023.0
2022-10-19T08:58:38.694Z,1022.9
2022-10-19T08:59:38.701Z,1022.9
2022-10-19T09:01:38.742Z,1022.9
2022-10-19T09:02:38.738Z,1023.0
2022-10-19T09:03:56.459Z,1023.0
2022-10-19T09:04:38.758Z,1022.9
2022-10-19T09:05:38.773Z,1023.0
2022-10-19T09:06:38.984Z,1023.0
2022-10-19T09:07:38.789Z,1023.0
2022-10-19T09:08:38.897Z,1022.9
2022-10-19T09:09:38.923Z,1023.0
2022-10-19T09:10:38.834Z,1022.9
2022-10-19T09:11:38.845Z,1022.9
2022-10-19T09:12:38.858Z,1023.0
2022-10-19T09:14:04.031Z,1022.9
2022-10-19T09:14:38.878Z,1022.9
2022-10-19T09:15:38.892Z,1023.0
2022-10-19T09:16:38.893Z,1022.9
2022-10-19T09:17:38.955Z,1022.9
2022-10-19T09:18:39.104Z,1022.9
2022-10-19T09:19:38.940Z,1022.9
2022-10-19T09:20:38.943Z,1023.0
2022-10-19T09:21:47.717Z,1023.0
2022-10-19T09:22:38.957Z,1023.0
2022-10-19T09:23:38.980Z,1023.0
2022-10-19T09:24:38.978Z,1022.9
2022-10-19T09:25:38.994Z,1023.0
2022-10-19T09:26:39.009Z,1023.0
2022-10-19T09:27:39.018Z,1023.0
2022-10-19T09:28:40.379Z,1023.0
2022-10-19T09:29:39.053Z,1022.9
2022-10-19T09:30:39.059Z,1023.0
2022-10-19T09:31:40.969Z,1023.0
2022-10-19T09:32:39.325Z,1022.9
2022-10-19T09:33:39.102Z,1022.9
2022-10-19T09:34:39.108Z,1023.0
2022-10-19T09:35:39.116Z,1023.0
2022-10-19T09:36:50.916Z,1023.0
2022-10-19T09:37:39.147Z,1022.9
2022-10-19T09:38:39.157Z,1023.0
2022-10-19T09:39:45.790Z,1023.1
2022-10-19T09:40:40.908Z,1023.0
2022-10-19T09:41:39.187Z,1023.0
2022-10-19T09:42:42.831Z,1023.0
2022-10-19T09:43:39.210Z,1023.1
2022-10-19T09:44:39.219Z,1023.1
2022-10-19T09:45:39.223Z,1023.2
2022-10-19T09:46:43.021Z,1023.1
2022-10-19T09:47:39.384Z,1023.1
2022-10-19T09:48:39.280Z,1023.1
2022-10-19T09:49:39.288Z,1023.2
2022-10-19T09:50:39.347Z,1023.1
2022-10-19T09:51:39.310Z,1023.2
2022-10-19T09:52:39.313Z,1023.2
2022-10-19T09:53:39.324Z,1023.1
2022-10-19T09:54:39.331Z,1023.2
2022-10-19T09:55:39.499Z,1023.2
2022-10-19T09:56:39.350Z,1023.1
2022-10-19T09:57:39.367Z,1023.1
2022-10-19T09:58:39.381Z,1023.2
2022-10-19T09:59:39.396Z,1023.2
2022-10-19T10:00:39.395Z,1023.2
2022-10-19T10:01:43.722Z,1023.1
2022-10-19T10:02:39.770Z,1023.1
2022-10-19T10:03:39.456Z,1023.1
2022-10-19T10:04:39.446Z,1023.0
2022-10-19T10:05:39.453Z,1023.1
2022-10-19T10:06:39.455Z,1023.0
2022-10-19T10:07:39.472Z,1023.1
2022-10-19T10:08:39.672Z,1023.1
2022-10-19T10:09:39.502Z,1023.2
2022-10-19T10:10:39.513Z,1023.1
2022-10-19T10:11:39.525Z,1023.2
2022-10-19T10:12:39.558Z,1023.2
2022-10-19T10:13:39.552Z,1023.1
2022-10-19T10:14:39.565Z,1023.2
2022-10-19T10:15:39.586Z,1023.1
2022-10-19T10:16:39.581Z,1023.1
2022-10-19T10:17:39.600Z,1023.1
2022-10-19T10:18:39.619Z,1023.1
2022-10-19T10:19:39.624Z,1023.1
2022-10-19T10:20:39.632Z,1023.1
2022-10-19T10:21:39.648Z,1023.1
2022-10-19T10:22:39.669Z,1023.0
2022-10-19T10:23:39.698Z,1023.1
2022-10-19T10:24:39.697Z,1023.1
2022-10-19T10:25:39.710Z,1023.1
2022-10-19T10:26:39.764Z,1023.1
2022-10-19T10:27:39.742Z,1023.1
2022-10-19T10:28:39.750Z,1023.1
2022-10-19T10:29:39.755Z,1023.1
2022-10-19T10:30:39.775Z,1023.1
2022-10-19T10:31:39.777Z,1023.2
2022-10-19T10:32:44.515Z,1023.1
2022-10-19T10:33:45.741Z,1023.2
2022-10-19T10:34:52.144Z,1023.2
2022-10-19T10:35:39.816Z,1023.1
2022-10-19T10:36:39.822Z,1023.2
2022-10-19T10:37:39.827Z,1023.1
2022-10-19T10:38:39.841Z,1023.2
2022-10-19T10:39:39.969Z,1023.2
2022-10-19T10:40:39.859Z,1023.2
2022-10-19T10:41:39.869Z,1023.2
2022-10-19T10:42:39.891Z,1023.2
2022-10-19T10:43:39.965Z,1023.2
2022-10-19T10:44:39.915Z,1023.3
2022-10-19T10:45:39.937Z,1023.2
2022-10-19T10:46:39.946Z,1023.3
2022-10-19T10:47:39.959Z,1023.2
2022-10-19T10:48:39.974Z,1023.3
2022-10-19T10:49:39.983Z,1023.3
2022-10-19T10:50:39.981Z,1023.3
2022-10-19T10:51:39.995Z,1023.3
2022-10-19T10:52:40.005Z,1023.2
2022-10-19T10:53:40.024Z,1023.2
2022-10-19T10:54:40.037Z,1023.2
2022-10-19T10:55:40.046Z,1023.2
2022-10-19T10:56:40.059Z,1023.3
2022-10-19T10:57:40.078Z,1023.3
2022-10-19T10:58:40.080Z,1023.2
2022-10-19T10:59:45.591Z,1023.2
2022-10-19T11:00:40.123Z,1023.2
2022-10-19T11:01:40.295Z,1023.2
2022-10-19T11:02:40.128Z,1023.1
2022-10-19T11:03:40.132Z,1023.1
2022-10-19T11:04:40.153Z,1023.1
2022-10-19T11:05:40.157Z,1023.2
2022-10-19T11:06:44.851Z,1023.2
2022-10-19T11:07:40.176Z,1023.1
2022-10-19T11:08:40.289Z,1023.2
2022-10-19T11:09:40.200Z,1023.1
2022-10-19T11:10:40.268Z,1023.1
2022-10-19T11:11:40.233Z,1023.1
2022-10-19T11:12:40.249Z,1023.1
2022-10-19T11:13:40.246Z,1023.1
2022-10-19T11:14:40.262Z,1023.0
2022-10-19T11:15:40.268Z,1023.1
2022-10-19T11:16:40.274Z,1023.1
2022-10-19T11:17:40.287Z,1023.1
2022-10-19T11:18:40.297Z,1023.0
2022-10-19T11:19:40.309Z,1023.2
2022-10-19T11:20:40.308Z,1023.0
2022-10-19T11:21:40.456Z,1023.1
2022-10-19T11:22:40.449Z,1023.0
2022-10-19T11:23:40.341Z,1023.0
2022-10-19T11:24:45.035Z,1023.0
2022-10-19T11:25:40.357Z,1023.2
2022-10-19T11:26:40.374Z,1023.1
2022-10-19T11:27:40.388Z,1023.0
2022-10-19T11:28:40.389Z,1023.0
2022-10-19T11:29:40.413Z,1023.0
2022-10-19T11:30:43.342Z,1023.0
2022-10-19T11:31:40.429Z,1022.9
2022-10-19T11:32:40.425Z,1023.0
2022-10-19T11:33:40.540Z,1022.9
2022-10-19T11:34:40.447Z,1022.9
2022-10-19T11:35:40.465Z,1022.9
2022-10-19T11:36:40.485Z,1023.0
2022-10-19T11:38:14.195Z,1022.9
2022-10-19T11:38:40.503Z,1022.9
2022-10-19T11:39:40.513Z,1022.9
2022-10-19T11:41:13.069Z,1022.8
2022-10-19T11:41:40.523Z,1022.8
2022-10-19T11:42:40.638Z,1022.8
2022-10-19T11:43:40.546Z,1022.8
2022-10-19T11:44:40.559Z,1022.9
2022-10-19T11:45:40.573Z,1022.8
2022-10-19T11:46:40.577Z,1022.8
2022-10-19T11:47:40.584Z,1022.8
2022-10-19T11:48:44.071Z,1022.7
2022-10-19T11:49:40.607Z,1022.7
2022-10-19T11:50:44.179Z,1022.8
2022-10-19T11:51:40.626Z,1022.7
2022-10-19T11:52:40.641Z,1022.7
2022-10-19T11:53:40.646Z,1022.7
2022-10-19T11:54:40.650Z,1022.7
2022-10-19T11:55:40.663Z,1022.7
2022-10-19T11:57:02.773Z,1022.7
2022-10-19T11:57:40.678Z,1022.7
2022-10-19T11:58:40.697Z,1022.6
2022-10-19T11:59:40.711Z,1022.6
2022-10-19T12:00:41.008Z,1022.6
2022-10-19T12:01:40.799Z,1022.5
2022-10-19T12:02:40.738Z,1022.5
2022-10-19T12:03:40.754Z,1022.5
2022-10-19T12:04:40.795Z,1022.5
2022-10-19T12:05:40.805Z,1022.5
2022-10-19T12:06:40.805Z,1022.5
2022-10-19T12:07:40.787Z,1022.5
2022-10-19T12:08:40.950Z,1022.5
2022-10-19T12:09:40.839Z,1022.4
2022-10-19T12:10:40.828Z,1022.5
2022-10-19T12:11:40.840Z,1022.5
2022-10-19T12:12:40.853Z,1022.4
2022-10-19T12:13:40.874Z,1022.4
2022-10-19T12:14:40.890Z,1022.3
2022-10-19T12:15:40.897Z,1022.4
2022-10-19T12:16:40.913Z,1022.3
2022-10-19T12:17:40.927Z,1022.3
2022-10-19T12:18:40.937Z,1022.3
2022-10-19T12:19:40.944Z,1022.3
2022-10-19T12:20:40.949Z,1022.3
2022-10-19T12:21:40.960Z,1022.3
2022-10-19T12:22:40.962Z,1022.3
2022-10-19T12:23:40.969Z,1022.3
2022-10-19T12:24:40.984Z,1022.3
2022-10-19T12:25:40.987Z,1022.3
2022-10-19T12:26:41.001Z,1022.3
2022-10-19T12:27:41.005Z,1022.3
2022-10-19T12:28:41.024Z,1022.2
2022-10-19T12:29:41.036Z,1022.3
2022-10-19T12:30:41.053Z,1022.3
2022-10-19T12:31:41.073Z,1022.2
2022-10-19T12:32:41.075Z,1022.2
2022-10-19T12:33:41.135Z,1022.2
2022-10-19T12:34:41.107Z,1022.2
2022-10-19T12:35:41.125Z,1022.1
2022-10-19T12:36:41.129Z,1022.1
2022-10-19T12:37:41.137Z,1022.0
2022-10-19T12:38:46.882Z,1022.1
2022-10-19T12:39:41.150Z,1022.1
2022-10-19T12:40:41.166Z,1022.0
2022-10-19T12:41:41.182Z,1022.0
2022-10-19T12:42:41.182Z,1022.0
2022-10-19T12:43:41.194Z,1022.0
2022-10-19T12:44:41.205Z,1022.0
2022-10-19T12:45:41.203Z,1022.0
2022-10-19T12:46:41.215Z,1022.0
2022-10-19T12:47:41.216Z,1022.0
2022-10-19T12:48:41.229Z,1021.9
2022-10-19T12:49:41.249Z,1022.0
2022-10-19T12:50:41.254Z,1021.9
2022-10-19T12:51:41.264Z,1022.0
2022-10-19T12:52:41.276Z,1022.0
2022-10-19T12:53:41.290Z,1021.9
2022-10-19T12:54:41.301Z,1022.0
2022-10-19T12:55:45.703Z,1021.9
2022-10-19T12:56:41.326Z,1022.0
2022-10-19T12:57:41.345Z,1021.9
2022-10-19T12:58:48.039Z,1021.9
2022-10-19T12:59:41.367Z,1021.9
2022-10-19T13:00:41.466Z,1022.0
2022-10-19T13:01:41.385Z,1021.9
2022-10-19T13:02:41.409Z,1021.9
2022-10-19T13:03:41.401Z,1021.9
2022-10-19T13:04:41.408Z,1021.9
2022-10-19T13:05:41.419Z,1022.0
2022-10-19T13:06:41.436Z,1022.0
2022-10-19T13:07:41.534Z,1021.9
2022-10-19T13:08:41.546Z,1021.9
2022-10-19T13:09:41.463Z,1021.9